sensor_id;sensor_type;location;lat;lon;timestamp;P1;durP1;ratioP1;P2;durP2;ratioP2
64375;SDS011;50700;55.416;12.952;2023-05-29T00:01:25;7.68;;;1.75;;
64375;SDS011;50700;55.416;12.952;2023-05-29T00:03:51;6.50;;;1.70;;
64375;SDS011;50700;55.416;12.952;2023-05-29T00:06:18;8.63;;;2.83;;
64375;SDS011;50700;55.416;12.952;2023-05-29T00:08:45;14.18;;;2.47;;
64375;SDS011;50700;55.416;12.952;2023-05-29T00:11:11;6.72;;;1.52;;
64375;SDS011;50700;55.416;12.952;2023-05-29T00:13:37;9.13;;;2.13;;
64375;SDS011;50700;55.416;12.952;2023-05-29T00:16:03;7.28;;;2.25;;
64375;SDS011;50700;55.416;12.952;2023-05-29T00:18:30;9.43;;;1.88;;
64375;SDS011;50700;55.416;12.952;2023-05-29T00:20:56;7.55;;;1.92;;
64375;SDS011;50700;55.416;12.952;2023-05-29T00:23:22;7.25;;;1.67;;
64375;SDS011;50700;55.416;12.952;2023-05-29T00:25:49;8.73;;;1.90;;
64375;SDS011;50700;55.416;12.952;2023-05-29T00:28:15;11.05;;;1.90;;
64375;SDS011;50700;55.416;12.952;2023-05-29T00:30:41;9.65;;;2.75;;
64375;SDS011;50700;55.416;12.952;2023-05-29T00:33:07;8.88;;;1.73;;
64375;SDS011;50700;55.416;12.952;2023-05-29T00:35:33;5.20;;;1.85;;
64375;SDS011;50700;55.416;12.952;2023-05-29T00:38:00;9.02;;;2.15;;
64375;SDS011;50700;55.416;12.952;2023-05-29T00:40:26;10.52;;;2.08;;
64375;SDS011;50700;55.416;12.952;2023-05-29T00:42:52;7.32;;;2.38;;
64375;SDS011;50700;55.416;12.952;2023-05-29T00:45:18;9.77;;;2.03;;
64375;SDS011;50700;55.416;12.952;2023-05-29T00:47:45;8.20;;;1.80;;
64375;SDS011;50700;55.416;12.952;2023-05-29T00:50:11;8.75;;;2.30;;
64375;SDS011;50700;55.416;12.952;2023-05-29T00:52:39;15.60;;;2.20;;
64375;SDS011;50700;55.416;12.952;2023-05-29T00:55:06;10.05;;;2.63;;
64375;SDS011;50700;55.416;12.952;2023-05-29T00:57:33;9.15;;;2.03;;
64375;SDS011;50700;55.416;12.952;2023-05-29T01:00:00;9.75;;;2.63;;
64375;SDS011;50700;55.416;12.952;2023-05-29T01:02:28;12.38;;;2.33;;
64375;SDS011;50700;55.416;12.952;2023-05-29T01:04:55;12.43;;;2.47;;
64375;SDS011;50700;55.416;12.952;2023-05-29T01:07:22;10.20;;;1.90;;
64375;SDS011;50700;55.416;12.952;2023-05-29T01:09:48;12.25;;;2.45;;
64375;SDS011;50700;55.416;12.952;2023-05-29T01:12:22;11.68;;;2.20;;
64375;SDS011;50700;55.416;12.952;2023-05-29T01:22:38;11.15;;;1.95;;
64375;SDS011;50700;55.416;12.952;2023-05-29T01:25:24;9.05;;;2.70;;
64375;SDS011;50700;55.416;12.952;2023-05-29T01:27:53;12.23;;;1.90;;
64375;SDS011;50700;55.416;12.952;2023-05-29T01:30:20;8.15;;;1.63;;
64375;SDS011;50700;55.416;12.952;2023-05-29T01:32:48;11.60;;;2.17;;
64375;SDS011;50700;55.416;12.952;2023-05-29T01:35:14;15.70;;;2.88;;
64375;SDS011;50700;55.416;12.952;2023-05-29T01:37:40;10.77;;;2.28;;
64375;SDS011;50700;55.416;12.952;2023-05-29T01:40:07;11.00;;;2.20;;
64375;SDS011;50700;55.416;12.952;2023-05-29T01:42:33;10.85;;;2.22;;
64375;SDS011;50700;55.416;12.952;2023-05-29T01:45:00;13.52;;;2.53;;
64375;SDS011;50700;55.416;12.952;2023-05-29T01:47:27;8.95;;;2.75;;
64375;SDS011;50700;55.416;12.952;2023-05-29T01:49:53;9.82;;;2.13;;
64375;SDS011;50700;55.416;12.952;2023-05-29T01:52:20;8.00;;;2.15;;
64375;SDS011;50700;55.416;12.952;2023-05-29T01:54:46;12.68;;;2.17;;
64375;SDS011;50700;55.416;12.952;2023-05-29T01:57:13;6.95;;;1.67;;
64375;SDS011;50700;55.416;12.952;2023-05-29T01:59:39;14.32;;;2.17;;
64375;SDS011;50700;55.416;12.952;2023-05-29T02:02:09;10.57;;;2.80;;
64375;SDS011;50700;55.416;12.952;2023-05-29T02:04:37;10.52;;;2.28;;
64375;SDS011;50700;55.416;12.952;2023-05-29T02:07:04;14.18;;;3.20;;
64375;SDS011;50700;55.416;12.952;2023-05-29T02:09:31;14.13;;;2.58;;
64375;SDS011;50700;55.416;12.952;2023-05-29T02:11:57;8.32;;;2.33;;
64375;SDS011;50700;55.416;12.952;2023-05-29T02:14:23;14.30;;;2.63;;
64375;SDS011;50700;55.416;12.952;2023-05-29T02:16:50;9.07;;;2.03;;
64375;SDS011;50700;55.416;12.952;2023-05-29T02:19:17;11.55;;;2.30;;
64375;SDS011;50700;55.416;12.952;2023-05-29T02:21:43;13.45;;;3.05;;
64375;SDS011;50700;55.416;12.952;2023-05-29T02:24:10;8.88;;;1.70;;
64375;SDS011;50700;55.416;12.952;2023-05-29T02:26:36;10.80;;;2.00;;
64375;SDS011;50700;55.416;12.952;2023-05-29T02:29:02;8.32;;;2.08;;
64375;SDS011;50700;55.416;12.952;2023-05-29T02:31:31;6.57;;;1.70;;
64375;SDS011;50700;55.416;12.952;2023-05-29T02:33:58;9.68;;;1.92;;
64375;SDS011;50700;55.416;12.952;2023-05-29T02:36:24;9.50;;;2.45;;
64375;SDS011;50700;55.416;12.952;2023-05-29T02:38:50;6.85;;;1.50;;
64375;SDS011;50700;55.416;12.952;2023-05-29T02:41:16;9.75;;;2.20;;
64375;SDS011;50700;55.416;12.952;2023-05-29T02:43:43;7.20;;;1.88;;
64375;SDS011;50700;55.416;12.952;2023-05-29T02:46:09;8.75;;;2.90;;
64375;SDS011;50700;55.416;12.952;2023-05-29T02:48:35;9.73;;;2.70;;
64375;SDS011;50700;55.416;12.952;2023-05-29T02:51:01;8.35;;;2.50;;
64375;SDS011;50700;55.416;12.952;2023-05-29T02:53:27;15.15;;;2.15;;
64375;SDS011;50700;55.416;12.952;2023-05-29T02:55:53;7.30;;;2.25;;
64375;SDS011;50700;55.416;12.952;2023-05-29T02:58:20;10.57;;;2.50;;
64375;SDS011;50700;55.416;12.952;2023-05-29T03:00:46;8.43;;;2.53;;
64375;SDS011;50700;55.416;12.952;2023-05-29T03:03:12;11.38;;;2.78;;
64375;SDS011;50700;55.416;12.952;2023-05-29T03:05:39;10.52;;;1.80;;
64375;SDS011;50700;55.416;12.952;2023-05-29T03:08:05;12.00;;;2.28;;
64375;SDS011;50700;55.416;12.952;2023-05-29T03:10:31;11.45;;;2.70;;
64375;SDS011;50700;55.416;12.952;2023-05-29T03:12:57;13.88;;;2.63;;
64375;SDS011;50700;55.416;12.952;2023-05-29T03:15:23;10.73;;;2.15;;
64375;SDS011;50700;55.416;12.952;2023-05-29T03:17:50;12.77;;;2.67;;
64375;SDS011;50700;55.416;12.952;2023-05-29T03:20:16;14.60;;;2.92;;
64375;SDS011;50700;55.416;12.952;2023-05-29T03:22:42;10.45;;;2.35;;
64375;SDS011;50700;55.416;12.952;2023-05-29T03:25:09;8.55;;;2.17;;
64375;SDS011;50700;55.416;12.952;2023-05-29T03:27:35;7.90;;;1.55;;
64375;SDS011;50700;55.416;12.952;2023-05-29T03:30:01;14.25;;;2.00;;
64375;SDS011;50700;55.416;12.952;2023-05-29T03:32:28;6.80;;;3.05;;
64375;SDS011;50700;55.416;12.952;2023-05-29T03:34:54;9.65;;;2.53;;
64375;SDS011;50700;55.416;12.952;2023-05-29T03:37:22;13.35;;;2.15;;
64375;SDS011;50700;55.416;12.952;2023-05-29T03:39:49;15.77;;;3.00;;
64375;SDS011;50700;55.416;12.952;2023-05-29T03:42:15;15.77;;;2.10;;
64375;SDS011;50700;55.416;12.952;2023-05-29T03:44:41;12.07;;;2.20;;
64375;SDS011;50700;55.416;12.952;2023-05-29T03:47:07;8.32;;;2.60;;
64375;SDS011;50700;55.416;12.952;2023-05-29T03:49:34;9.30;;;3.45;;
64375;SDS011;50700;55.416;12.952;2023-05-29T03:52:00;10.95;;;3.25;;
64375;SDS011;50700;55.416;12.952;2023-05-29T03:54:26;11.48;;;2.88;;
64375;SDS011;50700;55.416;12.952;2023-05-29T03:56:52;10.43;;;2.05;;
64375;SDS011;50700;55.416;12.952;2023-05-29T03:59:18;14.52;;;2.47;;
64375;SDS011;50700;55.416;12.952;2023-05-29T04:01:45;9.25;;;2.75;;
64375;SDS011;50700;55.416;12.952;2023-05-29T04:04:11;11.68;;;3.30;;
64375;SDS011;50700;55.416;12.952;2023-05-29T04:06:37;15.48;;;3.03;;
64375;SDS011;50700;55.416;12.952;2023-05-29T04:09:06;15.23;;;3.00;;
64375;SDS011;50700;55.416;12.952;2023-05-29T04:11:33;18.75;;;2.92;;
64375;SDS011;50700;55.416;12.952;2023-05-29T04:14:02;14.38;;;2.72;;
64375;SDS011;50700;55.416;12.952;2023-05-29T04:16:29;9.88;;;2.00;;
64375;SDS011;50700;55.416;12.952;2023-05-29T04:18:55;9.35;;;1.95;;
64375;SDS011;50700;55.416;12.952;2023-05-29T04:21:21;16.98;;;3.80;;
64375;SDS011;50700;55.416;12.952;2023-05-29T04:23:47;15.45;;;2.47;;
64375;SDS011;50700;55.416;12.952;2023-05-29T04:26:14;7.32;;;2.08;;
64375;SDS011;50700;55.416;12.952;2023-05-29T04:28:40;8.38;;;1.85;;
64375;SDS011;50700;55.416;12.952;2023-05-29T04:31:07;8.00;;;2.20;;
64375;SDS011;50700;55.416;12.952;2023-05-29T04:33:39;8.93;;;2.83;;
64375;SDS011;50700;55.416;12.952;2023-05-29T04:36:06;12.35;;;2.55;;
64375;SDS011;50700;55.416;12.952;2023-05-29T04:38:33;9.73;;;2.60;;
64375;SDS011;50700;55.416;12.952;2023-05-29T04:41:02;10.98;;;2.92;;
64375;SDS011;50700;55.416;12.952;2023-05-29T04:43:28;13.13;;;2.13;;
64375;SDS011;50700;55.416;12.952;2023-05-29T04:45:54;11.75;;;2.55;;
64375;SDS011;50700;55.416;12.952;2023-05-29T04:48:20;9.93;;;2.10;;
64375;SDS011;50700;55.416;12.952;2023-05-29T04:50:47;13.98;;;2.35;;
64375;SDS011;50700;55.416;12.952;2023-05-29T04:53:13;11.80;;;2.45;;
64375;SDS011;50700;55.416;12.952;2023-05-29T04:55:40;12.20;;;2.20;;
64375;SDS011;50700;55.416;12.952;2023-05-29T04:58:06;10.13;;;2.15;;
64375;SDS011;50700;55.416;12.952;2023-05-29T05:00:33;10.93;;;2.08;;
64375;SDS011;50700;55.416;12.952;2023-05-29T05:02:59;11.05;;;2.83;;
64375;SDS011;50700;55.416;12.952;2023-05-29T05:05:25;8.52;;;2.35;;
64375;SDS011;50700;55.416;12.952;2023-05-29T05:07:51;8.57;;;2.17;;
64375;SDS011;50700;55.416;12.952;2023-05-29T05:10:17;11.15;;;2.78;;
64375;SDS011;50700;55.416;12.952;2023-05-29T05:12:44;9.27;;;2.30;;
64375;SDS011;50700;55.416;12.952;2023-05-29T05:15:10;16.80;;;3.45;;
64375;SDS011;50700;55.416;12.952;2023-05-29T05:17:36;16.58;;;2.95;;
64375;SDS011;50700;55.416;12.952;2023-05-29T05:20:02;11.57;;;2.40;;
64375;SDS011;50700;55.416;12.952;2023-05-29T05:22:31;14.45;;;3.30;;
64375;SDS011;50700;55.416;12.952;2023-05-29T05:24:57;13.23;;;3.35;;
64375;SDS011;50700;55.416;12.952;2023-05-29T05:27:24;9.98;;;3.38;;
64375;SDS011;50700;55.416;12.952;2023-05-29T05:29:51;11.52;;;2.47;;
64375;SDS011;50700;55.416;12.952;2023-05-29T05:32:17;9.05;;;2.45;;
64375;SDS011;50700;55.416;12.952;2023-05-29T05:34:43;15.52;;;2.72;;
64375;SDS011;50700;55.416;12.952;2023-05-29T05:37:09;15.15;;;2.90;;
64375;SDS011;50700;55.416;12.952;2023-05-29T05:39:35;11.02;;;1.90;;
64375;SDS011;50700;55.416;12.952;2023-05-29T05:42:01;12.50;;;4.25;;
64375;SDS011;50700;55.416;12.952;2023-05-29T05:44:28;9.63;;;3.03;;
64375;SDS011;50700;55.416;12.952;2023-05-29T05:46:54;16.05;;;3.15;;
64375;SDS011;50700;55.416;12.952;2023-05-29T05:49:20;10.65;;;2.63;;
64375;SDS011;50700;55.416;12.952;2023-05-29T05:51:46;16.83;;;2.85;;
64375;SDS011;50700;55.416;12.952;2023-05-29T05:54:13;11.43;;;2.53;;
64375;SDS011;50700;55.416;12.952;2023-05-29T05:56:39;14.00;;;2.22;;
64375;SDS011;50700;55.416;12.952;2023-05-29T05:59:05;15.75;;;3.03;;
64375;SDS011;50700;55.416;12.952;2023-05-29T06:01:31;12.45;;;3.00;;
64375;SDS011;50700;55.416;12.952;2023-05-29T06:03:58;11.45;;;2.88;;
64375;SDS011;50700;55.416;12.952;2023-05-29T06:06:24;13.15;;;2.58;;
64375;SDS011;50700;55.416;12.952;2023-05-29T06:08:51;10.77;;;2.75;;
64375;SDS011;50700;55.416;12.952;2023-05-29T06:11:17;15.30;;;3.22;;
64375;SDS011;50700;55.416;12.952;2023-05-29T06:13:43;13.20;;;2.80;;
64375;SDS011;50700;55.416;12.952;2023-05-29T06:16:10;12.30;;;3.20;;
64375;SDS011;50700;55.416;12.952;2023-05-29T06:18:36;20.92;;;3.13;;
64375;SDS011;50700;55.416;12.952;2023-05-29T06:21:02;10.57;;;3.40;;
64375;SDS011;50700;55.416;12.952;2023-05-29T06:23:30;15.82;;;2.92;;
64375;SDS011;50700;55.416;12.952;2023-05-29T06:25:57;18.17;;;3.28;;
64375;SDS011;50700;55.416;12.952;2023-05-29T06:28:24;12.40;;;2.60;;
64375;SDS011;50700;55.416;12.952;2023-05-29T06:30:50;20.27;;;2.83;;
64375;SDS011;50700;55.416;12.952;2023-05-29T06:33:16;11.63;;;2.90;;
64375;SDS011;50700;55.416;12.952;2023-05-29T06:35:43;10.82;;;3.13;;
64375;SDS011;50700;55.416;12.952;2023-05-29T06:38:09;13.25;;;2.58;;
64375;SDS011;50700;55.416;12.952;2023-05-29T06:40:35;17.27;;;3.63;;
64375;SDS011;50700;55.416;12.952;2023-05-29T06:43:01;12.25;;;2.80;;
64375;SDS011;50700;55.416;12.952;2023-05-29T06:45:27;10.15;;;2.40;;
64375;SDS011;50700;55.416;12.952;2023-05-29T06:47:54;15.07;;;3.35;;
64375;SDS011;50700;55.416;12.952;2023-05-29T06:50:20;12.70;;;2.75;;
64375;SDS011;50700;55.416;12.952;2023-05-29T06:52:46;8.60;;;2.20;;
64375;SDS011;50700;55.416;12.952;2023-05-29T06:55:13;15.02;;;2.70;;
64375;SDS011;50700;55.416;12.952;2023-05-29T06:57:39;11.48;;;2.63;;
64375;SDS011;50700;55.416;12.952;2023-05-29T07:00:05;12.32;;;2.90;;
64375;SDS011;50700;55.416;12.952;2023-05-29T07:02:33;16.70;;;2.83;;
64375;SDS011;50700;55.416;12.952;2023-05-29T07:05:00;16.40;;;3.33;;
64375;SDS011;50700;55.416;12.952;2023-05-29T07:07:26;12.68;;;2.83;;
64375;SDS011;50700;55.416;12.952;2023-05-29T07:09:52;10.02;;;2.47;;
64375;SDS011;50700;55.416;12.952;2023-05-29T07:12:18;8.68;;;3.03;;
64375;SDS011;50700;55.416;12.952;2023-05-29T07:14:45;13.95;;;2.80;;
64375;SDS011;50700;55.416;12.952;2023-05-29T07:17:13;11.63;;;2.35;;
64375;SDS011;50700;55.416;12.952;2023-05-29T07:19:40;11.75;;;2.92;;
64375;SDS011;50700;55.416;12.952;2023-05-29T07:22:06;12.55;;;2.70;;
64375;SDS011;50700;55.416;12.952;2023-05-29T07:24:32;12.93;;;3.05;;
64375;SDS011;50700;55.416;12.952;2023-05-29T07:26:59;14.25;;;2.78;;
64375;SDS011;50700;55.416;12.952;2023-05-29T07:29:25;15.15;;;3.45;;
64375;SDS011;50700;55.416;12.952;2023-05-29T07:31:51;10.00;;;1.98;;
64375;SDS011;50700;55.416;12.952;2023-05-29T07:34:17;10.35;;;3.08;;
64375;SDS011;50700;55.416;12.952;2023-05-29T07:37:02;13.05;;;3.15;;
64375;SDS011;50700;55.416;12.952;2023-05-29T07:39:29;8.73;;;2.20;;
64375;SDS011;50700;55.416;12.952;2023-05-29T07:41:55;10.70;;;2.83;;
64375;SDS011;50700;55.416;12.952;2023-05-29T07:44:22;8.98;;;2.85;;
64375;SDS011;50700;55.416;12.952;2023-05-29T07:46:48;10.75;;;2.65;;
64375;SDS011;50700;55.416;12.952;2023-05-29T07:49:14;7.93;;;2.42;;
64375;SDS011;50700;55.416;12.952;2023-05-29T07:51:40;13.05;;;3.20;;
64375;SDS011;50700;55.416;12.952;2023-05-29T07:54:07;15.63;;;2.92;;
64375;SDS011;50700;55.416;12.952;2023-05-29T07:56:33;11.48;;;3.20;;
64375;SDS011;50700;55.416;12.952;2023-05-29T07:59:00;9.85;;;2.78;;
64375;SDS011;50700;55.416;12.952;2023-05-29T08:01:26;10.95;;;2.67;;
64375;SDS011;50700;55.416;12.952;2023-05-29T08:03:53;16.58;;;3.72;;
64375;SDS011;50700;55.416;12.952;2023-05-29T08:06:19;12.38;;;3.13;;
64375;SDS011;50700;55.416;12.952;2023-05-29T08:08:46;10.90;;;2.65;;
64375;SDS011;50700;55.416;12.952;2023-05-29T08:11:12;7.55;;;3.22;;
64375;SDS011;50700;55.416;12.952;2023-05-29T08:13:38;12.30;;;2.58;;
64375;SDS011;50700;55.416;12.952;2023-05-29T08:16:05;7.60;;;2.35;;
64375;SDS011;50700;55.416;12.952;2023-05-29T08:18:32;11.68;;;3.10;;
64375;SDS011;50700;55.416;12.952;2023-05-29T08:20:58;12.45;;;3.30;;
64375;SDS011;50700;55.416;12.952;2023-05-29T08:23:24;10.55;;;3.47;;
64375;SDS011;50700;55.416;12.952;2023-05-29T08:25:51;8.82;;;2.63;;
64375;SDS011;50700;55.416;12.952;2023-05-29T08:28:17;9.57;;;2.60;;
64375;SDS011;50700;55.416;12.952;2023-05-29T08:30:43;14.55;;;2.85;;
64375;SDS011;50700;55.416;12.952;2023-05-29T08:33:09;10.88;;;3.25;;
64375;SDS011;50700;55.416;12.952;2023-05-29T08:35:36;8.35;;;2.58;;
64375;SDS011;50700;55.416;12.952;2023-05-29T08:38:02;10.18;;;2.40;;
64375;SDS011;50700;55.416;12.952;2023-05-29T08:40:28;11.50;;;2.50;;
64375;SDS011;50700;55.416;12.952;2023-05-29T08:43:02;15.10;;;3.00;;
64375;SDS011;50700;55.416;12.952;2023-05-29T08:45:32;12.82;;;2.83;;
64375;SDS011;50700;55.416;12.952;2023-05-29T08:48:00;10.02;;;2.08;;
64375;SDS011;50700;55.416;12.952;2023-05-29T08:50:27;15.93;;;3.33;;
64375;SDS011;50700;55.416;12.952;2023-05-29T08:52:53;10.73;;;2.47;;
64375;SDS011;50700;55.416;12.952;2023-05-29T08:55:19;9.13;;;2.63;;
64375;SDS011;50700;55.416;12.952;2023-05-29T08:57:46;10.88;;;2.78;;
64375;SDS011;50700;55.416;12.952;2023-05-29T09:00:12;10.98;;;2.58;;
64375;SDS011;50700;55.416;12.952;2023-05-29T09:02:43;7.07;;;2.17;;
64375;SDS011;50700;55.416;12.952;2023-05-29T09:05:10;12.55;;;3.28;;
64375;SDS011;50700;55.416;12.952;2023-05-29T09:07:38;9.93;;;2.53;;
64375;SDS011;50700;55.416;12.952;2023-05-29T09:10:05;7.50;;;2.67;;
64375;SDS011;50700;55.416;12.952;2023-05-29T09:12:32;14.07;;;2.90;;
64375;SDS011;50700;55.416;12.952;2023-05-29T09:14:59;10.95;;;2.78;;
64375;SDS011;50700;55.416;12.952;2023-05-29T09:17:29;7.32;;;2.25;;
64375;SDS011;50700;55.416;12.952;2023-05-29T09:19:56;10.98;;;2.67;;
64375;SDS011;50700;55.416;12.952;2023-05-29T09:22:22;14.43;;;2.92;;
64375;SDS011;50700;55.416;12.952;2023-05-29T09:24:48;11.30;;;3.13;;
64375;SDS011;50700;55.416;12.952;2023-05-29T09:27:16;10.23;;;2.40;;
64375;SDS011;50700;55.416;12.952;2023-05-29T09:29:46;9.75;;;3.83;;
64375;SDS011;50700;55.416;12.952;2023-05-29T09:32:13;8.93;;;2.05;;
64375;SDS011;50700;55.416;12.952;2023-05-29T09:34:41;9.32;;;2.05;;
64375;SDS011;50700;55.416;12.952;2023-05-29T09:37:08;8.68;;;2.15;;
64375;SDS011;50700;55.416;12.952;2023-05-29T09:39:50;7.00;;;2.30;;
64375;SDS011;50700;55.416;12.952;2023-05-29T09:42:17;9.70;;;2.15;;
64375;SDS011;50700;55.416;12.952;2023-05-29T09:44:52;11.15;;;2.30;;
64375;SDS011;50700;55.416;12.952;2023-05-29T09:47:18;10.73;;;3.15;;
64375;SDS011;50700;55.416;12.952;2023-05-29T09:49:45;11.68;;;2.70;;
64375;SDS011;50700;55.416;12.952;2023-05-29T09:52:12;6.68;;;2.08;;
64375;SDS011;50700;55.416;12.952;2023-05-29T09:54:42;7.75;;;2.40;;
64375;SDS011;50700;55.416;12.952;2023-05-29T09:57:14;10.57;;;2.17;;
64375;SDS011;50700;55.416;12.952;2023-05-29T09:59:45;9.20;;;2.35;;
64375;SDS011;50700;55.416;12.952;2023-05-29T10:02:16;7.38;;;2.30;;
64375;SDS011;50700;55.416;12.952;2023-05-29T10:04:43;12.25;;;2.60;;
64375;SDS011;50700;55.416;12.952;2023-05-29T10:07:15;9.18;;;2.20;;
64375;SDS011;50700;55.416;12.952;2023-05-29T10:09:44;8.93;;;2.63;;
64375;SDS011;50700;55.416;12.952;2023-05-29T10:12:13;9.18;;;2.50;;
64375;SDS011;50700;55.416;12.952;2023-05-29T10:14:42;8.88;;;2.33;;
64375;SDS011;50700;55.416;12.952;2023-05-29T10:17:09;9.05;;;2.03;;
64375;SDS011;50700;55.416;12.952;2023-05-29T10:19:38;13.43;;;3.22;;
64375;SDS011;50700;55.416;12.952;2023-05-29T10:22:05;9.02;;;2.63;;
64375;SDS011;50700;55.416;12.952;2023-05-29T10:24:32;7.43;;;2.58;;
64375;SDS011;50700;55.416;12.952;2023-05-29T10:26:58;12.10;;;2.58;;
64375;SDS011;50700;55.416;12.952;2023-05-29T10:29:27;8.10;;;1.88;;
64375;SDS011;50700;55.416;12.952;2023-05-29T10:40:08;8.85;;;3.28;;
64375;SDS011;50700;55.416;12.952;2023-05-29T10:42:42;7.72;;;2.15;;
64375;SDS011;50700;55.416;12.952;2023-05-29T10:45:09;11.40;;;2.28;;
64375;SDS011;50700;55.416;12.952;2023-05-29T10:47:37;8.05;;;2.20;;
64375;SDS011;50700;55.416;12.952;2023-05-29T10:50:04;9.05;;;2.35;;
64375;SDS011;50700;55.416;12.952;2023-05-29T10:52:34;8.60;;;2.20;;
64375;SDS011;50700;55.416;12.952;2023-05-29T10:57:29;8.73;;;2.17;;
64375;SDS011;50700;55.416;12.952;2023-05-29T11:00:04;8.00;;;2.08;;
64375;SDS011;50700;55.416;12.952;2023-05-29T11:02:32;7.30;;;2.05;;
64375;SDS011;50700;55.416;12.952;2023-05-29T11:10:39;5.53;;;1.85;;
64375;SDS011;50700;55.416;12.952;2023-05-29T11:13:04;3.25;;;1.52;;
64375;SDS011;50700;55.416;12.952;2023-05-29T11:15:32;3.15;;;1.30;;
64375;SDS011;50700;55.416;12.952;2023-05-29T11:18:08;4.72;;;1.50;;
64375;SDS011;50700;55.416;12.952;2023-05-29T11:20:43;5.25;;;1.35;;
64375;SDS011;50700;55.416;12.952;2023-05-29T11:23:15;6.82;;;1.65;;
64375;SDS011;50700;55.416;12.952;2023-05-29T11:25:44;4.10;;;1.45;;
64375;SDS011;50700;55.416;12.952;2023-05-29T11:28:10;2.40;;;1.30;;
64375;SDS011;50700;55.416;12.952;2023-05-29T11:30:54;2.88;;;1.25;;
64375;SDS011;50700;55.416;12.952;2023-05-29T11:33:25;4.97;;;1.58;;
64375;SDS011;50700;55.416;12.952;2023-05-29T11:35:58;4.97;;;1.45;;
64375;SDS011;50700;55.416;12.952;2023-05-29T11:38:25;3.17;;;1.23;;
64375;SDS011;50700;55.416;12.952;2023-05-29T11:40:52;3.88;;;1.33;;
64375;SDS011;50700;55.416;12.952;2023-05-29T11:43:18;3.25;;;1.55;;
64375;SDS011;50700;55.416;12.952;2023-05-29T11:45:45;2.58;;;1.23;;
64375;SDS011;50700;55.416;12.952;2023-05-29T11:48:11;5.32;;;1.05;;
64375;SDS011;50700;55.416;12.952;2023-05-29T11:50:37;3.47;;;1.30;;
64375;SDS011;50700;55.416;12.952;2023-05-29T11:53:05;6.40;;;1.25;;
64375;SDS011;50700;55.416;12.952;2023-05-29T11:55:31;5.70;;;1.10;;
64375;SDS011;50700;55.416;12.952;2023-05-29T11:57:59;1.80;;;1.00;;
64375;SDS011;50700;55.416;12.952;2023-05-29T12:00:26;1.30;;;0.90;;
64375;SDS011;50700;55.416;12.952;2023-05-29T12:02:57;1.92;;;0.90;;
64375;SDS011;50700;55.416;12.952;2023-05-29T12:05:23;1.55;;;0.98;;
64375;SDS011;50700;55.416;12.952;2023-05-29T12:07:53;2.95;;;1.00;;
64375;SDS011;50700;55.416;12.952;2023-05-29T12:10:21;3.17;;;0.98;;
64375;SDS011;50700;55.416;12.952;2023-05-29T12:12:51;2.35;;;0.93;;
64375;SDS011;50700;55.416;12.952;2023-05-29T12:15:18;0.77;;;0.77;;
64375;SDS011;50700;55.416;12.952;2023-05-29T12:17:45;4.10;;;0.90;;
64375;SDS011;50700;55.416;12.952;2023-05-29T12:20:12;2.45;;;0.93;;
64375;SDS011;50700;55.416;12.952;2023-05-29T12:22:39;1.35;;;0.80;;
64375;SDS011;50700;55.416;12.952;2023-05-29T12:25:12;2.30;;;1.40;;
64375;SDS011;50700;55.416;12.952;2023-05-29T12:27:39;3.35;;;0.90;;
64375;SDS011;50700;55.416;12.952;2023-05-29T12:30:12;2.30;;;0.90;;
64375;SDS011;50700;55.416;12.952;2023-05-29T12:32:45;2.85;;;1.00;;
64375;SDS011;50700;55.416;12.952;2023-05-29T12:35:19;3.55;;;1.10;;
64375;SDS011;50700;55.416;12.952;2023-05-29T12:37:55;2.05;;;1.00;;
64375;SDS011;50700;55.416;12.952;2023-05-29T12:40:25;1.10;;;0.90;;
64375;SDS011;50700;55.416;12.952;2023-05-29T12:42:58;2.15;;;1.10;;
64375;SDS011;50700;55.416;12.952;2023-05-29T12:45:25;0.88;;;0.70;;
64375;SDS011;50700;55.416;12.952;2023-05-29T12:47:55;0.60;;;0.55;;
64375;SDS011;50700;55.416;12.952;2023-05-29T12:50:23;3.67;;;0.90;;
64375;SDS011;50700;55.416;12.952;2023-05-29T12:53:00;1.23;;;1.13;;
64375;SDS011;50700;55.416;12.952;2023-05-29T12:55:30;3.03;;;1.08;;
64375;SDS011;50700;55.416;12.952;2023-05-29T12:58:10;2.38;;;1.00;;
64375;SDS011;50700;55.416;12.952;2023-05-29T13:00:37;2.88;;;0.90;;
64375;SDS011;50700;55.416;12.952;2023-05-29T13:03:06;0.77;;;0.77;;
64375;SDS011;50700;55.416;12.952;2023-05-29T13:05:32;2.92;;;0.90;;
64375;SDS011;50700;55.416;12.952;2023-05-29T13:07:59;2.15;;;0.80;;
64375;SDS011;50700;55.416;12.952;2023-05-29T13:10:26;2.22;;;0.93;;
64375;SDS011;50700;55.416;12.952;2023-05-29T13:12:52;2.17;;;1.17;;
64375;SDS011;50700;55.416;12.952;2023-05-29T13:15:20;2.38;;;0.88;;
64375;SDS011;50700;55.416;12.952;2023-05-29T13:17:46;1.42;;;0.85;;
64375;SDS011;50700;55.416;12.952;2023-05-29T13:20:13;1.58;;;1.17;;
64375;SDS011;50700;55.416;12.952;2023-05-29T13:22:39;1.63;;;0.90;;
64375;SDS011;50700;55.416;12.952;2023-05-29T13:25:06;2.58;;;0.90;;
64375;SDS011;50700;55.416;12.952;2023-05-29T13:27:34;1.30;;;0.80;;
64375;SDS011;50700;55.416;12.952;2023-05-29T13:30:01;1.08;;;0.73;;
64375;SDS011;50700;55.416;12.952;2023-05-29T13:32:27;0.95;;;0.75;;
64375;SDS011;50700;55.416;12.952;2023-05-29T13:34:53;2.03;;;0.80;;
64375;SDS011;50700;55.416;12.952;2023-05-29T13:37:19;1.65;;;0.85;;
64375;SDS011;50700;55.416;12.952;2023-05-29T13:39:45;1.00;;;0.80;;
64375;SDS011;50700;55.416;12.952;2023-05-29T13:42:12;2.25;;;0.80;;
64375;SDS011;50700;55.416;12.952;2023-05-29T13:44:38;1.70;;;1.00;;
64375;SDS011;50700;55.416;12.952;2023-05-29T13:47:05;1.25;;;0.70;;
64375;SDS011;50700;55.416;12.952;2023-05-29T13:49:32;2.78;;;0.80;;
64375;SDS011;50700;55.416;12.952;2023-05-29T13:51:58;2.33;;;0.75;;
64375;SDS011;50700;55.416;12.952;2023-05-29T13:54:24;2.28;;;1.00;;
64375;SDS011;50700;55.416;12.952;2023-05-29T13:56:52;1.08;;;0.77;;
64375;SDS011;50700;55.416;12.952;2023-05-29T13:59:18;2.15;;;0.85;;
64375;SDS011;50700;55.416;12.952;2023-05-29T14:01:44;1.38;;;1.20;;
64375;SDS011;50700;55.416;12.952;2023-05-29T14:04:10;8.85;;;1.85;;
64375;SDS011;50700;55.416;12.952;2023-05-29T14:06:37;3.33;;;0.88;;
64375;SDS011;50700;55.416;12.952;2023-05-29T14:09:03;2.75;;;0.90;;
64375;SDS011;50700;55.416;12.952;2023-05-29T14:11:29;0.82;;;0.70;;
64375;SDS011;50700;55.416;12.952;2023-05-29T14:13:55;1.17;;;0.85;;
64375;SDS011;50700;55.416;12.952;2023-05-29T14:16:21;2.17;;;1.02;;
64375;SDS011;50700;55.416;12.952;2023-05-29T14:18:47;1.58;;;0.90;;
64375;SDS011;50700;55.416;12.952;2023-05-29T14:21:15;3.40;;;0.80;;
64375;SDS011;50700;55.416;12.952;2023-05-29T14:23:41;1.67;;;1.33;;
64375;SDS011;50700;55.416;12.952;2023-05-29T14:26:07;2.58;;;1.00;;
64375;SDS011;50700;55.416;12.952;2023-05-29T14:28:33;3.45;;;0.90;;
64375;SDS011;50700;55.416;12.952;2023-05-29T14:30:59;2.05;;;1.13;;
64375;SDS011;50700;55.416;12.952;2023-05-29T14:33:25;3.13;;;1.15;;
64375;SDS011;50700;55.416;12.952;2023-05-29T14:35:52;1.92;;;0.95;;
64375;SDS011;50700;55.416;12.952;2023-05-29T14:38:18;2.25;;;1.08;;
64375;SDS011;50700;55.416;12.952;2023-05-29T14:40:44;2.55;;;0.80;;
64375;SDS011;50700;55.416;12.952;2023-05-29T14:43:10;1.90;;;0.73;;
64375;SDS011;50700;55.416;12.952;2023-05-29T14:45:36;1.58;;;0.73;;
64375;SDS011;50700;55.416;12.952;2023-05-29T14:48:02;2.10;;;0.90;;
64375;SDS011;50700;55.416;12.952;2023-05-29T14:50:29;3.45;;;1.00;;
64375;SDS011;50700;55.416;12.952;2023-05-29T14:52:56;2.28;;;0.95;;